sensor_id;sensor_type;location;lat;lon;timestamp;pressure;altitude;pressure_sealevel;temperature;humidity
50430;BME280;36359;41.556;-8.418;2023-07-31T00:00:15;100595.28;;;22.70;65.44
50430;BME280;36359;41.556;-8.418;2023-07-31T00:02:41;100595.41;;;22.81;64.14
50430;BME280;36359;41.556;-8.418;2023-07-31T00:05:08;100588.78;;;22.82;68.37
50430;BME280;36359;41.556;-8.418;2023-07-31T00:07:34;100591.53;;;22.89;64.21
50430;BME280;36359;41.556;-8.418;2023-07-31T00:09:59;100587.09;;;22.81;64.72
50430;BME280;36359;41.556;-8.418;2023-07-31T00:12:25;100575.25;;;22.74;64.03
50430;BME280;36359;41.556;-8.418;2023-07-31T00:14:51;100582.97;;;22.65;64.52
50430;BME280;36359;41.556;-8.418;2023-07-31T00:17:17;100582.59;;;22.55;65.04
50430;BME280;36359;41.556;-8.418;2023-07-31T00:19:43;100573.47;;;22.55;65.47
50430;BME280;36359;41.556;-8.418;2023-07-31T00:22:09;100574.69;;;22.59;64.99
50430;BME280;36359;41.556;-8.418;2023-07-31T00:24:34;100573.13;;;22.44;66.14
50430;BME280;36359;41.556;-8.418;2023-07-31T00:27:00;100572.72;;;22.34;66.00
50430;BME280;36359;41.556;-8.418;2023-07-31T00:29:26;100562.72;;;22.40;68.58
50430;BME280;36359;41.556;-8.418;2023-07-31T00:31:52;100571.59;;;22.49;66.30
50430;BME280;36359;41.556;-8.418;2023-07-31T00:34:17;100566.72;;;22.44;66.23
50430;BME280;36359;41.556;-8.418;2023-07-31T00:36:43;100566.94;;;22.42;66.22
50430;BME280;36359;41.556;-8.418;2023-07-31T00:39:09;100569.72;;;22.42;66.77
50430;BME280;36359;41.556;-8.418;2023-07-31T00:41:34;100571.84;;;22.40;67.01
50430;BME280;36359;41.556;-8.418;2023-07-31T00:44:00;100570.47;;;22.25;66.84
50430;BME280;36359;41.556;-8.418;2023-07-31T00:46:26;100565.16;;;22.16;67.47
50430;BME280;36359;41.556;-8.418;2023-07-31T00:48:52;100566.22;;;22.09;67.83
50430;BME280;36359;41.556;-8.418;2023-07-31T00:51:18;100565.00;;;22.05;68.06
50430;BME280;36359;41.556;-8.418;2023-07-31T00:53:43;100559.09;;;21.94;68.86
50430;BME280;36359;41.556;-8.418;2023-07-31T00:56:10;100563.06;;;22.05;69.52
50430;BME280;36359;41.556;-8.418;2023-07-31T00:58:38;100557.00;;;21.83;69.73
50430;BME280;36359;41.556;-8.418;2023-07-31T01:01:03;100562.25;;;21.98;71.04
50430;BME280;36359;41.556;-8.418;2023-07-31T01:03:29;100555.78;;;21.66;69.49
50430;BME280;36359;41.556;-8.418;2023-07-31T01:08:54;100555.72;;;21.79;69.55
50430;BME280;36359;41.556;-8.418;2023-07-31T01:11:31;100553.25;;;21.71;69.84
50430;BME280;36359;41.556;-8.418;2023-07-31T01:13:58;100544.13;;;21.57;71.24
50430;BME280;36359;41.556;-8.418;2023-07-31T01:16:25;100535.47;;;21.33;71.26
50430;BME280;36359;41.556;-8.418;2023-07-31T01:18:52;100546.28;;;21.48;72.65
50430;BME280;36359;41.556;-8.418;2023-07-31T01:26:58;100535.94;;;20.97;73.46
50430;BME280;36359;41.556;-8.418;2023-07-31T01:29:38;100542.06;;;21.32;73.17
50430;BME280;36359;41.556;-8.418;2023-07-31T01:32:05;100539.50;;;21.31;72.36
50430;BME280;36359;41.556;-8.418;2023-07-31T01:34:32;100537.81;;;21.17;73.65
50430;BME280;36359;41.556;-8.418;2023-07-31T01:36:58;100532.09;;;20.85;74.70
50430;BME280;36359;41.556;-8.418;2023-07-31T01:39:23;100532.50;;;21.08;75.57
50430;BME280;36359;41.556;-8.418;2023-07-31T01:41:49;100528.28;;;20.93;74.77
50430;BME280;36359;41.556;-8.418;2023-07-31T01:44:15;100533.19;;;20.77;75.06
50430;BME280;36359;41.556;-8.418;2023-07-31T01:46:41;100532.94;;;21.05;74.26
50430;BME280;36359;41.556;-8.418;2023-07-31T01:49:06;100534.00;;;21.11;73.73
50430;BME280;36359;41.556;-8.418;2023-07-31T01:51:32;100544.41;;;21.09;74.39
50430;BME280;36359;41.556;-8.418;2023-07-31T01:54:01;100540.78;;;21.08;74.49
50430;BME280;36359;41.556;-8.418;2023-07-31T01:56:27;100545.47;;;21.08;75.28
50430;BME280;36359;41.556;-8.418;2023-07-31T01:58:53;100538.69;;;20.97;75.62
50430;BME280;36359;41.556;-8.418;2023-07-31T02:01:18;100546.97;;;20.97;75.93
50430;BME280;36359;41.556;-8.418;2023-07-31T02:03:44;100552.47;;;21.04;75.50
50430;BME280;36359;41.556;-8.418;2023-07-31T02:06:10;100544.00;;;21.12;74.37
50430;BME280;36359;41.556;-8.418;2023-07-31T02:08:36;100543.16;;;20.98;74.17
50430;BME280;36359;41.556;-8.418;2023-07-31T02:11:01;100543.56;;;20.95;75.16
50430;BME280;36359;41.556;-8.418;2023-07-31T02:13:27;100544.00;;;20.85;75.51
50430;BME280;36359;41.556;-8.418;2023-07-31T02:15:53;100536.78;;;20.78;75.66
50430;BME280;36359;41.556;-8.418;2023-07-31T02:18:19;100531.91;;;20.86;76.45
50430;BME280;36359;41.556;-8.418;2023-07-31T02:20:49;100538.06;;;20.75;76.55
50430;BME280;36359;41.556;-8.418;2023-07-31T02:23:15;100537.41;;;20.67;77.20
50430;BME280;36359;41.556;-8.418;2023-07-31T02:25:42;100539.31;;;20.73;77.33
50430;BME280;36359;41.556;-8.418;2023-07-31T02:28:08;100535.44;;;20.27;78.70
50430;BME280;36359;41.556;-8.418;2023-07-31T02:30:33;100536.03;;;20.16;80.02
50430;BME280;36359;41.556;-8.418;2023-07-31T02:32:59;100529.91;;;20.34;79.23
50430;BME280;36359;41.556;-8.418;2023-07-31T02:35:25;100535.84;;;20.44;78.73
50430;BME280;36359;41.556;-8.418;2023-07-31T02:37:51;100528.44;;;20.38;78.89
50430;BME280;36359;41.556;-8.418;2023-07-31T02:40:18;100532.72;;;20.47;78.35
50430;BME280;36359;41.556;-8.418;2023-07-31T02:42:45;100534.22;;;20.56;77.69
50430;BME280;36359;41.556;-8.418;2023-07-31T02:45:11;100534.66;;;20.53;77.82
50430;BME280;36359;41.556;-8.418;2023-07-31T02:47:37;100528.25;;;20.46;78.09
50430;BME280;36359;41.556;-8.418;2023-07-31T02:50:03;100527.59;;;20.31;78.25
50430;BME280;36359;41.556;-8.418;2023-07-31T02:52:29;100528.00;;;20.41;78.22
50430;BME280;36359;41.556;-8.418;2023-07-31T02:54:54;100532.84;;;20.26;79.04
50430;BME280;36359;41.556;-8.418;2023-07-31T02:57:20;100533.38;;;20.62;78.24
50430;BME280;36359;41.556;-8.418;2023-07-31T02:59:46;100529.56;;;20.70;76.69
50430;BME280;36359;41.556;-8.418;2023-07-31T03:02:12;100534.66;;;20.67;75.77
50430;BME280;36359;41.556;-8.418;2023-07-31T03:04:38;100528.91;;;20.61;75.92
50430;BME280;36359;41.556;-8.418;2023-07-31T03:07:11;100532.31;;;20.63;76.72
50430;BME280;36359;41.556;-8.418;2023-07-31T03:09:37;100536.16;;;20.62;76.23
50430;BME280;36359;41.556;-8.418;2023-07-31T03:12:03;100524.69;;;20.59;76.78
50430;BME280;36359;41.556;-8.418;2023-07-31T03:14:29;100529.00;;;20.07;78.16
50430;BME280;36359;41.556;-8.418;2023-07-31T03:16:54;100533.22;;;20.03;78.23
50430;BME280;36359;41.556;-8.418;2023-07-31T03:19:20;100529.88;;;20.20;78.50
50430;BME280;36359;41.556;-8.418;2023-07-31T03:21:46;100531.53;;;20.08;78.30
50430;BME280;36359;41.556;-8.418;2023-07-31T03:24:11;100526.50;;;20.12;77.97
50430;BME280;36359;41.556;-8.418;2023-07-31T03:26:38;100520.56;;;20.22;78.77
50430;BME280;36359;41.556;-8.418;2023-07-31T03:29:07;100519.31;;;20.31;77.36
50430;BME280;36359;41.556;-8.418;2023-07-31T03:31:33;100531.41;;;20.30;77.63
50430;BME280;36359;41.556;-8.418;2023-07-31T03:33:58;100529.69;;;20.29;77.39
50430;BME280;36359;41.556;-8.418;2023-07-31T03:36:24;100522.91;;;20.18;77.72
50430;BME280;36359;41.556;-8.418;2023-07-31T03:38:51;100530.09;;;20.26;77.39
50430;BME280;36359;41.556;-8.418;2023-07-31T03:41:17;100521.59;;;20.20;77.18
50430;BME280;36359;41.556;-8.418;2023-07-31T03:43:50;100520.16;;;20.18;77.81
50430;BME280;36359;41.556;-8.418;2023-07-31T03:46:18;100518.34;;;19.84;79.56
50430;BME280;36359;41.556;-8.418;2023-07-31T03:48:43;100525.53;;;19.85;79.91
50430;BME280;36359;41.556;-8.418;2023-07-31T03:51:09;100517.50;;;19.90;80.30
50430;BME280;36359;41.556;-8.418;2023-07-31T03:53:35;100519.91;;;20.06;79.29
50430;BME280;36359;41.556;-8.418;2023-07-31T03:56:00;100527.19;;;19.79;80.37
50430;BME280;36359;41.556;-8.418;2023-07-31T03:58:26;100523.25;;;19.54;81.18
50430;BME280;36359;41.556;-8.418;2023-07-31T04:00:54;100533.13;;;19.76;82.48
50430;BME280;36359;41.556;-8.418;2023-07-31T04:03:20;100537.13;;;19.73;80.67
50430;BME280;36359;41.556;-8.418;2023-07-31T04:05:45;100542.31;;;19.62;81.45
50430;BME280;36359;41.556;-8.418;2023-07-31T04:08:11;100548.13;;;19.73;81.16
50430;BME280;36359;41.556;-8.418;2023-07-31T04:10:37;100541.16;;;19.71;81.34
50430;BME280;36359;41.556;-8.418;2023-07-31T04:13:02;100539.22;;;19.65;81.53
50430;BME280;36359;41.556;-8.418;2023-07-31T04:15:28;100547.66;;;19.63;81.68
50430;BME280;36359;41.556;-8.418;2023-07-31T04:17:54;100542.75;;;19.59;82.07
50430;BME280;36359;41.556;-8.418;2023-07-31T04:20:19;100549.69;;;19.20;84.22
50430;BME280;36359;41.556;-8.418;2023-07-31T04:22:45;100546.75;;;19.21;84.21
50430;BME280;36359;41.556;-8.418;2023-07-31T04:25:11;100540.72;;;19.33;83.73
50430;BME280;36359;41.556;-8.418;2023-07-31T04:27:36;100540.19;;;19.22;84.26
50430;BME280;36359;41.556;-8.418;2023-07-31T04:30:02;100542.41;;;19.34;83.76
50430;BME280;36359;41.556;-8.418;2023-07-31T04:32:28;100530.72;;;19.32;83.82
50430;BME280;36359;41.556;-8.418;2023-07-31T04:34:55;100537.31;;;19.31;83.68
50430;BME280;36359;41.556;-8.418;2023-07-31T04:37:20;100538.19;;;19.38;83.60
50430;BME280;36359;41.556;-8.418;2023-07-31T04:39:46;100543.47;;;19.33;83.91
50430;BME280;36359;41.556;-8.418;2023-07-31T04:42:12;100544.78;;;19.43;84.54
50430;BME280;36359;41.556;-8.418;2023-07-31T04:44:38;100545.44;;;19.45;83.59
50430;BME280;36359;41.556;-8.418;2023-07-31T04:47:03;100549.75;;;19.61;81.67
50430;BME280;36359;41.556;-8.418;2023-07-31T04:49:29;100540.28;;;19.70;80.96
50430;BME280;36359;41.556;-8.418;2023-07-31T04:51:55;100544.50;;;19.66;81.06
50430;BME280;36359;41.556;-8.418;2023-07-31T04:54:20;100536.06;;;19.68;81.02
50430;BME280;36359;41.556;-8.418;2023-07-31T04:56:46;100541.75;;;19.66;82.85
50430;BME280;36359;41.556;-8.418;2023-07-31T04:59:12;100540.28;;;19.70;81.69
50430;BME280;36359;41.556;-8.418;2023-07-31T05:01:38;100541.44;;;19.48;82.25
50430;BME280;36359;41.556;-8.418;2023-07-31T05:04:04;100543.53;;;19.46;82.83
50430;BME280;36359;41.556;-8.418;2023-07-31T05:06:29;100538.25;;;19.16;84.56
50430;BME280;36359;41.556;-8.418;2023-07-31T05:08:55;100536.59;;;19.22;84.30
50430;BME280;36359;41.556;-8.418;2023-07-31T05:11:21;100534.25;;;19.19;84.75
50430;BME280;36359;41.556;-8.418;2023-07-31T05:13:46;100540.00;;;19.24;84.46
50430;BME280;36359;41.556;-8.418;2023-07-31T05:16:12;100533.44;;;19.25;84.32
50430;BME280;36359;41.556;-8.418;2023-07-31T05:18:38;100529.44;;;19.27;83.70
50430;BME280;36359;41.556;-8.418;2023-07-31T05:21:03;100537.53;;;19.01;83.86
50430;BME280;36359;41.556;-8.418;2023-07-31T05:23:29;100540.91;;;19.03;84.37
50430;BME280;36359;41.556;-8.418;2023-07-31T05:26:03;100541.59;;;19.12;83.79
50430;BME280;36359;41.556;-8.418;2023-07-31T05:28:28;100538.66;;;19.13;83.44
50430;BME280;36359;41.556;-8.418;2023-07-31T05:30:59;100532.91;;;19.08;83.65
50430;BME280;36359;41.556;-8.418;2023-07-31T05:33:25;100545.38;;;19.04;84.54
50430;BME280;36359;41.556;-8.418;2023-07-31T05:35:50;100539.63;;;18.99;84.85
50430;BME280;36359;41.556;-8.418;2023-07-31T05:38:16;100534.22;;;19.12;84.23
50430;BME280;36359;41.556;-8.418;2023-07-31T05:40:43;100543.13;;;19.49;82.32
50430;BME280;36359;41.556;-8.418;2023-07-31T05:43:08;100551.53;;;19.41;80.95
50430;BME280;36359;41.556;-8.418;2023-07-31T05:45:35;100544.16;;;19.41;82.42
50430;BME280;36359;41.556;-8.418;2023-07-31T05:48:01;100552.38;;;19.06;83.12
50430;BME280;36359;41.556;-8.418;2023-07-31T05:50:26;100547.97;;;19.12;83.55
50430;BME280;36359;41.556;-8.418;2023-07-31T05:52:52;100552.06;;;18.95;84.57
50430;BME280;36359;41.556;-8.418;2023-07-31T05:55:18;100549.22;;;19.10;84.95
50430;BME280;36359;41.556;-8.418;2023-07-31T05:57:43;100551.72;;;19.04;84.14
50430;BME280;36359;41.556;-8.418;2023-07-31T06:00:12;100551.31;;;19.08;84.46
50430;BME280;36359;41.556;-8.418;2023-07-31T06:02:38;100548.50;;;19.29;83.23
50430;BME280;36359;41.556;-8.418;2023-07-31T06:05:04;100556.59;;;19.37;82.25
50430;BME280;36359;41.556;-8.418;2023-07-31T06:07:32;100559.63;;;19.49;82.40
50430;BME280;36359;41.556;-8.418;2023-07-31T06:09:57;100565.13;;;19.49;82.39
50430;BME280;36359;41.556;-8.418;2023-07-31T06:12:28;100561.72;;;19.47;82.65
50430;BME280;36359;41.556;-8.418;2023-07-31T06:14:54;100555.09;;;19.35;83.43
50430;BME280;36359;41.556;-8.418;2023-07-31T06:17:20;100554.94;;;19.43;83.52
50430;BME280;36359;41.556;-8.418;2023-07-31T06:19:46;100560.28;;;19.51;82.79
50430;BME280;36359;41.556;-8.418;2023-07-31T06:22:12;100570.47;;;19.57;82.27
50430;BME280;36359;41.556;-8.418;2023-07-31T06:24:38;100568.97;;;19.55;82.25
50430;BME280;36359;41.556;-8.418;2023-07-31T06:27:04;100563.06;;;19.58;82.18
50430;BME280;36359;41.556;-8.418;2023-07-31T06:29:31;100564.31;;;19.55;82.89
50430;BME280;36359;41.556;-8.418;2023-07-31T06:31:57;100564.44;;;19.68;82.91
50430;BME280;36359;41.556;-8.418;2023-07-31T06:34:23;100570.94;;;20.02;82.79
50430;BME280;36359;41.556;-8.418;2023-07-31T06:36:48;100569.25;;;20.08;81.25
50430;BME280;36359;41.556;-8.418;2023-07-31T06:39:14;100569.50;;;20.19;80.74
50430;BME280;36359;41.556;-8.418;2023-07-31T06:41:42;100566.56;;;20.28;80.43
50430;BME280;36359;41.556;-8.418;2023-07-31T06:44:10;100569.34;;;20.28;80.25
50430;BME280;36359;41.556;-8.418;2023-07-31T06:46:36;100565.31;;;20.24;80.57
50430;BME280;36359;41.556;-8.418;2023-07-31T06:49:02;100569.28;;;20.14;82.23
50430;BME280;36359;41.556;-8.418;2023-07-31T06:51:27;100564.53;;;19.88;82.69
50430;BME280;36359;41.556;-8.418;2023-07-31T06:53:53;100567.59;;;20.20;82.08
50430;BME280;36359;41.556;-8.418;2023-07-31T06:56:20;100565.06;;;20.12;81.94
50430;BME280;36359;41.556;-8.418;2023-07-31T06:58:46;100569.75;;;20.31;81.95
50430;BME280;36359;41.556;-8.418;2023-07-31T07:01:11;100577.84;;;20.46;81.48
50430;BME280;36359;41.556;-8.418;2023-07-31T07:03:37;100585.78;;;20.69;80.66
50430;BME280;36359;41.556;-8.418;2023-07-31T07:06:03;100577.69;;;20.68;79.65
50430;BME280;36359;41.556;-8.418;2023-07-31T07:08:28;100584.50;;;20.65;79.56
50430;BME280;36359;41.556;-8.418;2023-07-31T07:10:54;100577.50;;;20.62;79.51
50430;BME280;36359;41.556;-8.418;2023-07-31T07:13:20;100586.38;;;20.64;80.75
50430;BME280;36359;41.556;-8.418;2023-07-31T07:15:49;100580.25;;;20.69;80.91
50430;BME280;36359;41.556;-8.418;2023-07-31T07:18:15;100582.09;;;20.49;80.96
50430;BME280;36359;41.556;-8.418;2023-07-31T07:20:46;100585.97;;;20.54;81.08
50430;BME280;36359;41.556;-8.418;2023-07-31T07:23:12;100587.09;;;20.18;81.30
50430;BME280;36359;41.556;-8.418;2023-07-31T07:25:38;100583.75;;;20.30;81.70
50430;BME280;36359;41.556;-8.418;2023-07-31T07:28:03;100599.56;;;20.62;80.47
50430;BME280;36359;41.556;-8.418;2023-07-31T07:30:29;100604.66;;;20.66;79.74
50430;BME280;36359;41.556;-8.418;2023-07-31T07:32:55;100605.06;;;20.62;79.69
50430;BME280;36359;41.556;-8.418;2023-07-31T07:35:20;100603.81;;;20.72;79.23
50430;BME280;36359;41.556;-8.418;2023-07-31T07:37:48;100607.41;;;20.79;79.08
50430;BME280;36359;41.556;-8.418;2023-07-31T07:40:15;100606.59;;;21.25;79.11
50430;BME280;36359;41.556;-8.418;2023-07-31T07:42:41;100612.75;;;21.27;77.03
50430;BME280;36359;41.556;-8.418;2023-07-31T07:45:07;100617.00;;;21.56;76.33
50430;BME280;36359;41.556;-8.418;2023-07-31T07:47:33;100622.50;;;21.63;75.72
50430;BME280;36359;41.556;-8.418;2023-07-31T07:49:59;100620.47;;;21.96;74.44
50430;BME280;36359;41.556;-8.418;2023-07-31T07:52:25;100623.41;;;22.08;73.49
50430;BME280;36359;41.556;-8.418;2023-07-31T07:54:50;100625.09;;;22.61;72.87
50430;BME280;36359;41.556;-8.418;2023-07-31T07:57:16;100622.09;;;22.69;70.88
50430;BME280;36359;41.556;-8.418;2023-07-31T07:59:42;100622.88;;;22.44;71.04
50430;BME280;36359;41.556;-8.418;2023-07-31T08:02:07;100625.69;;;22.70;71.73
50430;BME280;36359;41.556;-8.418;2023-07-31T08:04:33;100627.25;;;22.90;69.98
50430;BME280;36359;41.556;-8.418;2023-07-31T08:06:59;100623.75;;;22.77;70.43
50430;BME280;36359;41.556;-8.418;2023-07-31T08:09:24;100634.38;;;22.73;70.16
50430;BME280;36359;41.556;-8.418;2023-07-31T08:11:50;100628.06;;;22.66;70.72
50430;BME280;36359;41.556;-8.418;2023-07-31T08:14:16;100625.03;;;22.74;70.29
50430;BME280;36359;41.556;-8.418;2023-07-31T08:16:42;100622.84;;;22.51;71.42
50430;BME280;36359;41.556;-8.418;2023-07-31T08:19:07;100622.09;;;22.69;70.54
50430;BME280;36359;41.556;-8.418;2023-07-31T08:21:33;100630.34;;;22.76;70.30
50430;BME280;36359;41.556;-8.418;2023-07-31T08:23:59;100625.38;;;22.84;70.45
50430;BME280;36359;41.556;-8.418;2023-07-31T08:26:25;100625.44;;;22.78;69.28
50430;BME280;36359;41.556;-8.418;2023-07-31T08:28:50;100621.06;;;22.63;69.80
50430;BME280;36359;41.556;-8.418;2023-07-31T08:31:16;100629.97;;;23.04;68.95
50430;BME280;36359;41.556;-8.418;2023-07-31T08:33:42;100619.69;;;23.36;68.05
50430;BME280;36359;41.556;-8.418;2023-07-31T08:36:07;100629.81;;;23.67;67.38
50430;BME280;36359;41.556;-8.418;2023-07-31T08:38:33;100627.41;;;23.77;66.87
50430;BME280;36359;41.556;-8.418;2023-07-31T08:40:59;100629.97;;;23.54;66.13
50430;BME280;36359;41.556;-8.418;2023-07-31T08:43:27;100629.84;;;23.17;68.77
50430;BME280;36359;41.556;-8.418;2023-07-31T08:45:53;100627.50;;;23.64;66.87
50430;BME280;36359;41.556;-8.418;2023-07-31T08:48:21;100623.97;;;23.57;65.54
50430;BME280;36359;41.556;-8.418;2023-07-31T08:50:48;100621.03;;;23.77;65.92
50430;BME280;36359;41.556;-8.418;2023-07-31T08:53:14;100621.22;;;23.75;66.52
50430;BME280;36359;41.556;-8.418;2023-07-31T08:55:40;100628.88;;;23.98;64.68
50430;BME280;36359;41.556;-8.418;2023-07-31T08:58:05;100626.47;;;23.15;66.58
50430;BME280;36359;41.556;-8.418;2023-07-31T09:00:32;100620.97;;;23.08;67.92
50430;BME280;36359;41.556;-8.418;2023-07-31T09:05:28;100628.47;;;23.76;66.35
50430;BME280;36359;41.556;-8.418;2023-07-31T09:07:55;100616.59;;;23.69;65.51
50430;BME280;36359;41.556;-8.418;2023-07-31T09:10:22;100609.97;;;23.27;66.69
50430;BME280;36359;41.556;-8.418;2023-07-31T09:12:49;100616.94;;;23.54;66.29
50430;BME280;36359;41.556;-8.418;2023-07-31T09:15:14;100614.91;;;24.05;65.44
50430;BME280;36359;41.556;-8.418;2023-07-31T09:17:40;100605.22;;;24.33;63.58
50430;BME280;36359;41.556;-8.418;2023-07-31T09:20:16;100614.38;;;23.78;63.03
50430;BME280;36359;41.556;-8.418;2023-07-31T09:22:43;100615.31;;;23.72;64.56
50430;BME280;36359;41.556;-8.418;2023-07-31T09:25:29;100606.78;;;23.92;62.57
50430;BME280;36359;41.556;-8.418;2023-07-31T09:28:02;100619.25;;;23.57;63.22
50430;BME280;36359;41.556;-8.418;2023-07-31T09:30:28;100615.16;;;23.85;63.49
50430;BME280;36359;41.556;-8.418;2023-07-31T09:33:02;100618.00;;;23.97;64.05
50430;BME280;36359;41.556;-8.418;2023-07-31T09:35:30;100614.78;;;23.82;63.83
50430;BME280;36359;41.556;-8.418;2023-07-31T09:38:25;100614.31;;;24.21;64.01
50430;BME280;36359;41.556;-8.418;2023-07-31T09:40:51;100615.81;;;24.36;61.42
50430;BME280;36359;41.556;-8.418;2023-07-31T09:43:18;100614.44;;;24.45;61.67
50430;BME280;36359;41.556;-8.418;2023-07-31T09:45:45;100611.84;;;24.13;61.08
50430;BME280;36359;41.556;-8.418;2023-07-31T09:48:13;100610.09;;;24.00;62.26
50430;BME280;36359;41.556;-8.418;2023-07-31T09:50:42;100606.59;;;24.23;61.79
50430;BME280;36359;41.556;-8.418;2023-07-31T09:53:09;100602.16;;;23.86;62.35
50430;BME280;36359;41.556;-8.418;2023-07-31T09:55:36;100603.56;;;23.95;63.54
50430;BME280;36359;41.556;-8.418;2023-07-31T09:58:07;100601.09;;;24.35;62.74
50430;BME280;36359;41.556;-8.418;2023-07-31T10:00:33;100611.63;;;24.63;59.68
50430;BME280;36359;41.556;-8.418;2023-07-31T10:03:01;100608.09;;;24.98;59.63
50430;BME280;36359;41.556;-8.418;2023-07-31T10:05:40;100608.88;;;25.29;59.01
50430;BME280;36359;41.556;-8.418;2023-07-31T10:08:07;100610.94;;;25.22;57.77
50430;BME280;36359;41.556;-8.418;2023-07-31T10:10:36;100606.84;;;25.36;59.40
50430;BME280;36359;41.556;-8.418;2023-07-31T10:13:02;100605.75;;;25.13;59.03
50430;BME280;36359;41.556;-8.418;2023-07-31T10:15:29;100611.94;;;25.39;58.85
50430;BME280;36359;41.556;-8.418;2023-07-31T10:17:56;100607.69;;;25.60;58.14
50430;BME280;36359;41.556;-8.418;2023-07-31T10:20:23;100614.56;;;25.69;55.43
50430;BME280;36359;41.556;-8.418;2023-07-31T10:22:51;100611.59;;;25.47;55.49
50430;BME280;36359;41.556;-8.418;2023-07-31T10:25:18;100614.69;;;25.15;58.43
50430;BME280;36359;41.556;-8.418;2023-07-31T10:27:47;100615.53;;;25.28;56.36
50430;BME280;36359;41.556;-8.418;2023-07-31T10:30:15;100612.78;;;25.51;55.43
50430;BME280;36359;41.556;-8.418;2023-07-31T10:32:43;100605.16;;;25.35;57.50
50430;BME280;36359;41.556;-8.418;2023-07-31T10:35:10;100606.97;;;25.41;56.89
50430;BME280;36359;41.556;-8.418;2023-07-31T10:37:41;100616.16;;;25.53;54.67
50430;BME280;36359;41.556;-8.418;2023-07-31T10:40:16;100614.72;;;25.63;54.38
50430;BME280;36359;41.556;-8.418;2023-07-31T10:42:55;100603.31;;;25.76;55.25
50430;BME280;36359;41.556;-8.418;2023-07-31T10:45:34;100609.00;;;25.81;55.58
50430;BME280;36359;41.556;-8.418;2023-07-31T10:48:15;100615.91;;;25.90;54.21
50430;BME280;36359;41.556;-8.418;2023-07-31T10:50:54;100612.00;;;26.03;55.08
50430;BME280;36359;41.556;-8.418;2023-07-31T10:53:31;100620.00;;;25.99;53.26
50430;BME280;36359;41.556;-8.418;2023-07-31T10:55:58;100604.66;;;25.61;52.75
50430;BME280;36359;41.556;-8.418;2023-07-31T10:58:24;100606.47;;;25.68;54.42
50430;BME280;36359;41.556;-8.418;2023-07-31T11:00:55;100606.22;;;25.81;55.13
50430;BME280;36359;41.556;-8.418;2023-07-31T11:03:25;100603.25;;;26.23;51.71
50430;BME280;36359;41.556;-8.418;2023-07-31T11:06:01;100602.19;;;26.24;53.68
50430;BME280;36359;41.556;-8.418;2023-07-31T11:08:32;100596.75;;;26.46;51.15
50430;BME280;36359;41.556;-8.418;2023-07-31T11:13:31;100598.44;;;26.47;51.34
50430;BME280;36359;41.556;-8.418;2023-07-31T11:15:57;100596.69;;;26.29;52.42
50430;BME280;36359;41.556;-8.418;2023-07-31T11:18:24;100589.66;;;26.10;53.87
50430;BME280;36359;41.556;-8.418;2023-07-31T11:20:49;100594.03;;;26.34;52.44
50430;BME280;36359;41.556;-8.418;2023-07-31T11:23:18;100582.91;;;26.34;52.95
50430;BME280;36359;41.556;-8.418;2023-07-31T11:25:44;100585.50;;;26.24;52.92
50430;BME280;36359;41.556;-8.418;2023-07-31T11:28:15;100591.56;;;26.49;48.22
50430;BME280;36359;41.556;-8.418;2023-07-31T11:30:42;100579.00;;;26.92;44.45
50430;BME280;36359;41.556;-8.418;2023-07-31T11:33:10;100578.94;;;26.59;45.54
50430;BME280;36359;41.556;-8.418;2023-07-31T11:35:47;100581.75;;;26.47;44.60
50430;BME280;36359;41.556;-8.418;2023-07-31T11:38:32;100585.69;;;26.91;42.03
50430;BME280;36359;41.556;-8.418;2023-07-31T11:41:03;100583.50;;;27.27;41.10
50430;BME280;36359;41.556;-8.418;2023-07-31T11:43:30;100575.09;;;27.44;40.62
50430;BME280;36359;41.556;-8.418;2023-07-31T11:45:57;100582.31;;;27.06;41.32
50430;BME280;36359;41.556;-8.418;2023-07-31T11:48:25;100583.81;;;27.14;41.20
50430;BME280;36359;41.556;-8.418;2023-07-31T11:50:58;100586.28;;;27.27;41.34
50430;BME280;36359;41.556;-8.418;2023-07-31T11:53:49;100583.09;;;27.18;42.41
50430;BME280;36359;41.556;-8.418;2023-07-31T11:56:20;100578.50;;;27.12;39.93
50430;BME280;36359;41.556;-8.418;2023-07-31T11:58:48;100578.66;;;27.06;39.94
50430;BME280;36359;41.556;-8.418;2023-07-31T12:01:15;100571.34;;;27.33;40.52
50430;BME280;36359;41.556;-8.418;2023-07-31T12:03:44;100571.88;;;27.69;40.34
50430;BME280;36359;41.556;-8.418;2023-07-31T12:06:10;100563.34;;;27.59;39.97
50430;BME280;36359;41.556;-8.418;2023-07-31T12:08:36;100566.81;;;27.66;40.65
50430;BME280;36359;41.556;-8.418;2023-07-31T12:11:08;100576.50;;;28.02;40.47
50430;BME280;36359;41.556;-8.418;2023-07-31T12:13:38;100569.59;;;27.83;41.00
50430;BME280;36359;41.556;-8.418;2023-07-31T12:16:04;100562.44;;;28.14;39.91
50430;BME280;36359;41.556;-8.418;2023-07-31T12:18:34;100563.72;;;28.28;39.39
50430;BME280;36359;41.556;-8.418;2023-07-31T12:21:02;100566.78;;;28.27;40.90
50430;BME280;36359;41.556;-8.418;2023-07-31T12:23:34;100566.28;;;27.69;40.57
50430;BME280;36359;41.556;-8.418;2023-07-31T12:26:08;100558.41;;;28.05;40.46
50430;BME280;36359;41.556;-8.418;2023-07-31T12:28:36;100560.84;;;28.23;40.06
50430;BME280;36359;41.556;-8.418;2023-07-31T12:31:04;100557.31;;;27.84;41.06
50430;BME280;36359;41.556;-8.418;2023-07-31T12:33:32;100551.72;;;28.28;40.14
50430;BME280;36359;41.556;-8.418;2023-07-31T12:36:00;100555.41;;;28.12;41.21
50430;BME280;36359;41.556;-8.418;2023-07-31T12:38:26;100550.13;;;28.59;38.74
50430;BME280;36359;41.556;-8.418;2023-07-31T12:40:51;100542.91;;;28.63;39.59
50430;BME280;36359;41.556;-8.418;2023-07-31T12:43:17;100540.94;;;28.64;40.50
50430;BME280;36359;41.556;-8.418;2023-07-31T12:45:43;100544.50;;;28.86;40.37
50430;BME280;36359;41.556;-8.418;2023-07-31T12:48:09;100541.13;;;29.16;37.62
50430;BME280;36359;41.556;-8.418;2023-07-31T12:50:35;100543.00;;;29.06;38.77
50430;BME280;36359;41.556;-8.418;2023-07-31T12:53:05;100537.38;;;29.38;38.34